Dati Storici

Data ora Umidita' aria (%) Temperatura aria (°C) Rad globale (W/m²) Gonioanemometro (°) Tacoanemometro (m/s) Pioggia (mm)
09-06-2020 12:10 70.8 % 21.451 -76.895 -0.025 0 0
09-06-2020 12:00 70.7 % 22.473 -79.854 -0.024 0 0
09-06-2020 11:50 71.6 % 21.983 -50.878 1.686 0 0
09-06-2020 11:40 73.2 % 21.564 -80.694 1.129 0 0
09-06-2020 11:30 77 % 21.89 -80.307 1.228 0 0
09-06-2020 11:20 77.6 % 20.543 -51.812 1.602 0 0
09-06-2020 11:10 77.9 % 20.135 -78.676 1.955 0 0
09-06-2020 11:00 79.8 % 20.672 -79.339 2.432 0 0
09-06-2020 10:50 86.1 % 20.292 -78.699 0.854 0 0
09-06-2020 10:40 86.5 % 19.85 -73.055 0.719 0 0
09-06-2020 10:30 85.8 % 19.569 -75.773 0.749 0 0
09-06-2020 10:20 85.8 % 19.346 -80.729 1.136 0 0
09-06-2020 10:10 83.6 % 19.363 -78.889 1.987 0 0
09-06-2020 10:00 82 % 20.013 -80.472 1.748 0 0
09-06-2020 09:50 81.5 % 20.036 -52.319 2.482 0 0
09-06-2020 09:40 84.9 % 20.131 -49.859 1.131 0 0
09-06-2020 09:30 87.8 % 18.844 -78.909 0.622 0 0
09-06-2020 09:20 88.6 % 18.842 -51.363 0.496 0 0
09-06-2020 09:10 90.4 % 18.602 -51.347 1.177 0 0
09-06-2020 09:00 90.9 % 18.219 -78.138 2.303 0 0

I dati sono presentati in modo automatico a scopo informativo. In seguito a verifica i dati possono subire modifiche o essere invalidati e non riportati negli archivi definitivi.